Time;durP1;ratioP1;P1;durP2;ratioP2;P2;SDS_P1;SDS_P2;PMS_P1;PMS_P2;Temp;Humidity;BMP_temperature;BMP_pressure;BME280_temperature;BME280_humidity;BME280_pressure;Samples;Min_cycle;Max_cycle;Signal;HPM_P1;HPM_P2
2022/04/10 00:00:30;;;;;;;4.03;1.13;;;14.30;59.30;;;;;;4844010;29;20949;-58
2022/04/10 00:03:03;;;;;;;1.33;0.80;;;14.40;59.10;;;;;;4848407;29;20461;-58
2022/04/10 00:05:34;;;;;;;2.33;0.80;;;14.50;58.70;;;;;;4846831;29;20552;-59
2022/04/10 00:08:06;;;;;;;1.20;1.00;;;14.60;58.00;;;;;;4850906;29;20478;-57
2022/04/10 00:10:37;;;;;;;1.47;0.83;;;14.80;56.40;;;;;;4847020;29;20542;-57
2022/04/10 00:13:08;;;;;;;1.57;0.70;;;14.60;56.80;;;;;;4845861;29;20469;-57
2022/04/10 00:15:39;;;;;;;1.47;0.80;;;14.20;56.30;;;;;;4838701;29;20500;-58
2022/04/10 00:18:11;;;;;;;2.03;1.50;;;13.80;58.00;;;;;;4835932;29;20535;-57
2022/04/10 00:20:42;;;;;;;2.60;1.70;;;13.70;59.90;;;;;;4845491;29;20483;-57
2022/04/10 00:23:13;;;;;;;1.30;1.20;;;13.70;59.20;;;;;;4848140;29;20477;-57
2022/04/10 00:25:44;;;;;;;2.90;1.70;;;13.60;59.30;;;;;;4842182;29;20487;-58
2022/04/10 00:28:15;;;;;;;3.23;1.00;;;13.60;60.80;;;;;;4850393;29;20476;-58
2022/04/10 00:30:46;;;;;;;2.50;1.33;;;13.70;61.70;;;;;;4844628;29;20481;-58
2022/04/10 00:33:18;;;;;;;1.00;0.90;;;13.40;62.30;;;;;;4850996;29;20461;-58
2022/04/10 00:35:49;;;;;;;2.83;1.07;;;13.20;62.20;;;;;;4848489;29;20478;-58
2022/04/10 00:38:21;;;;;;;2.07;1.53;;;13.00;65.20;;;;;;4846284;29;20458;-58
2022/04/10 00:40:52;;;;;;;2.03;1.00;;;13.00;66.40;;;;;;4852483;29;20482;-58
2022/04/10 00:43:28;;;;;;;2.73;1.20;;;13.00;66.90;;;;;;4851434;29;20612;-58
2022/04/10 00:46:00;;;;;;;2.37;1.40;;;12.90;68.20;;;;;;4847020;29;20492;-58
2022/04/10 00:48:32;;;;;;;3.40;1.57;;;12.70;67.90;;;;;;4846663;29;20453;-59
2022/04/10 00:53:50;;;;;;;4.00;2.37;;;12.50;70.50;;;;;;4843778;29;20462;-56
2022/04/10 00:56:21;;;;;;;4.33;1.03;;;12.50;71.20;;;;;;4847046;29;21344;-58
2022/04/10 00:58:52;;;;;;;1.50;0.97;;;12.40;71.70;;;;;;4841436;29;20463;-55
2022/04/10 01:01:23;;;;;;;1.93;1.20;;;12.20;72.80;;;;;;4849019;29;20458;-57
2022/04/10 01:03:56;;;;;;;1.40;1.10;;;12.20;72.30;;;;;;4837553;29;20523;-60
2022/04/10 01:06:27;;;;;;;1.50;1.10;;;11.90;73.00;;;;;;4844183;29;20464;-61
2022/04/10 01:08:58;;;;;;;3.73;1.20;;;12.00;74.10;;;;;;4848199;29;20586;-62
2022/04/10 01:11:29;;;;;;;1.60;1.23;;;11.90;73.70;;;;;;4844407;29;20800;-61
2022/04/10 01:14:01;;;;;;;2.07;0.90;;;11.70;75.00;;;;;;4835450;29;20508;-60
2022/04/10 01:16:32;;;;;;;1.40;0.90;;;11.50;76.00;;;;;;4843700;29;20508;-61
2022/04/10 01:19:06;;;;;;;1.07;0.97;;;11.50;77.50;;;;;;4841142;29;20430;-61
2022/04/10 01:21:43;;;;;;;1.50;0.80;;;11.50;77.40;;;;;;4847207;29;20479;-61
2022/04/10 01:24:17;;;;;;;1.73;0.83;;;11.40;78.50;;;;;;4844530;29;20465;-62
2022/04/10 01:26:47;;;;;;;1.20;0.80;;;11.40;79.70;;;;;;4852292;29;20466;-57
2022/04/10 01:29:18;;;;;;;1.70;0.73;;;11.20;79.20;;;;;;4850436;29;20805;-57
2022/04/10 01:31:49;;;;;;;0.73;0.70;;;11.30;78.40;;;;;;4848925;29;21077;-57
2022/04/10 01:34:20;;;;;;;1.33;0.83;;;11.10;75.90;;;;;;4835269;29;20463;-55
2022/04/10 01:36:51;;;;;;;1.93;0.73;;;10.90;72.90;;;;;;4845151;29;20482;-59
2022/04/10 01:39:26;;;;;;;4.33;0.90;;;10.80;72.10;;;;;;4849273;29;20882;-58
2022/04/10 01:41:57;;;;;;;1.10;0.90;;;10.70;72.70;;;;;;4844039;29;20477;-58
2022/04/10 01:44:29;;;;;;;1.20;1.00;;;10.80;74.50;;;;;;4844017;29;20455;-56
2022/04/10 01:46:59;;;;;;;1.40;1.20;;;10.90;76.00;;;;;;4840372;29;20463;-58
2022/04/10 01:49:30;;;;;;;3.83;1.83;;;10.90;75.10;;;;;;4843914;29;20447;-55
2022/04/10 01:52:01;;;;;;;1.37;1.10;;;10.90;74.40;;;;;;4843366;29;20489;-56
2022/04/10 01:54:33;;;;;;;8.43;3.20;;;10.90;75.20;;;;;;4845208;29;20474;-56
2022/04/10 01:57:04;;;;;;;5.00;2.13;;;10.90;75.30;;;;;;4844686;29;20518;-58
2022/04/10 01:59:35;;;;;;;0.77;0.53;;;10.90;75.60;;;;;;4837780;29;20815;-55
2022/04/10 02:02:07;;;;;;;2.40;1.33;;;10.80;75.60;;;;;;4844972;29;21166;-58
2022/04/10 02:04:38;;;;;;;3.83;1.10;;;10.80;76.40;;;;;;4849926;29;20471;-56
2022/04/10 02:07:09;;;;;;;2.73;1.10;;;10.70;76.10;;;;;;4850534;29;20497;-55
2022/04/10 02:09:41;;;;;;;1.67;1.13;;;10.70;77.50;;;;;;4848185;29;20473;-57
2022/04/10 02:12:13;;;;;;;2.00;1.00;;;10.60;78.50;;;;;;4848931;29;21008;-58
2022/04/10 02:14:44;;;;;;;3.20;1.30;;;10.50;78.40;;;;;;4842527;29;20557;-59
2022/04/10 02:17:14;;;;;;;2.70;1.17;;;10.50;79.50;;;;;;4843752;29;20842;-57
2022/04/10 02:19:45;;;;;;;4.20;1.23;;;10.40;80.90;;;;;;4849220;29;20458;-55
2022/04/10 02:22:16;;;;;;;1.50;1.00;;;10.30;83.40;;;;;;4849500;29;20461;-58
2022/04/10 02:24:49;;;;;;;3.47;1.30;;;10.30;85.30;;;;;;4851265;29;20470;-58
2022/04/10 02:27:20;;;;;;;1.30;1.20;;;10.30;85.50;;;;;;4849364;29;20473;-59
2022/04/10 02:29:51;;;;;;;6.23;1.70;;;10.30;86.40;;;;;;4837266;29;20490;-59
2022/04/10 02:32:23;;;;;;;3.63;1.43;;;10.30;86.30;;;;;;4843882;29;20463;-58
2022/04/10 02:34:54;;;;;;;2.40;1.37;;;10.30;84.20;;;;;;4833746;29;20459;-59
2022/04/10 02:37:25;;;;;;;2.27;1.10;;;10.20;82.10;;;;;;4838038;29;20495;-58
2022/04/10 02:39:57;;;;;;;1.77;1.20;;;10.10;81.80;;;;;;4840114;29;20485;-59
2022/04/10 02:42:28;;;;;;;2.10;1.10;;;9.80;84.40;;;;;;4835142;29;20460;-59
2022/04/10 02:44:59;;;;;;;2.20;0.70;;;9.80;85.10;;;;;;4835365;29;20218;-59
2022/04/10 02:47:30;;;;;;;1.40;0.80;;;9.70;85.40;;;;;;4841246;29;20470;-59
2022/04/10 02:50:01;;;;;;;1.02;0.80;;;9.50;86.30;;;;;;4835930;29;20468;-60
2022/04/10 02:52:32;;;;;;;1.27;0.97;;;9.50;86.90;;;;;;4843037;29;20610;-59
2022/04/10 02:55:04;;;;;;;0.80;0.80;;;9.40;87.50;;;;;;4845113;29;20799;-59
2022/04/10 02:57:35;;;;;;;1.70;0.60;;;9.30;89.40;;;;;;4841770;29;20498;-55
2022/04/10 03:00:07;;;;;;;1.25;0.70;;;9.20;90.10;;;;;;4847807;29;20224;-59
2022/04/10 03:02:41;;;;;;;0.60;0.50;;;9.20;90.20;;;;;;4849688;29;20197;-57
2022/04/10 03:05:12;;;;;;;1.00;1.00;;;9.20;90.50;;;;;;4850749;29;20631;-58
2022/04/10 03:07:43;;;;;;;1.08;0.98;;;9.10;90.60;;;;;;4848724;29;20241;-58
2022/04/10 03:10:15;;;;;;;1.95;0.85;;;9.00;91.00;;;;;;4834573;29;20210;-59
2022/04/10 03:12:46;;;;;;;1.15;0.80;;;9.10;91.30;;;;;;4845458;29;20293;-58
2022/04/10 03:15:18;;;;;;;0.90;0.75;;;9.10;91.20;;;;;;4846085;29;20213;-56
2022/04/10 03:17:49;;;;;;;1.58;0.82;;;9.10;91.30;;;;;;4849674;29;20255;-57
2022/04/10 03:20:20;;;;;;;1.00;0.70;;;9.10;91.30;;;;;;4836913;29;20212;-54
2022/04/10 03:22:50;;;;;;;0.82;0.82;;;9.00;91.60;;;;;;4836919;29;20220;-55
2022/04/10 03:25:23;;;;;;;0.82;0.73;;;9.00;91.70;;;;;;4843545;29;20224;-56
2022/04/10 03:27:54;;;;;;;2.80;0.90;;;9.00;91.80;;;;;;4848935;29;20233;-56
2022/04/10 03:30:24;;;;;;;1.83;0.90;;;9.00;91.90;;;;;;4835552;29;20340;-54
2022/04/10 03:32:55;;;;;;;1.50;0.80;;;9.10;91.80;;;;;;4844560;29;20202;-56
2022/04/10 03:35:26;;;;;;;0.90;0.90;;;9.20;92.40;;;;;;4833104;29;20206;-56
2022/04/10 03:37:57;;;;;;;1.40;1.20;;;9.20;94.40;;;;;;4836855;29;20234;-56
2022/04/10 03:40:29;;;;;;;1.45;1.15;;;9.30;94.60;;;;;;4844475;29;20463;-57
2022/04/10 03:43:00;;;;;;;1.17;1.03;;;9.40;93.00;;;;;;4842918;29;20227;-56
2022/04/10 03:45:31;;;;;;;2.10;1.13;;;9.30;92.70;;;;;;4841497;29;20529;-56
2022/04/10 03:48:02;;;;;;;2.07;1.87;;;9.20;93.50;;;;;;4843185;29;20212;-57
2022/04/10 03:50:33;;;;;;;1.98;1.05;;;9.20;93.20;;;;;;4847609;29;20510;-55
2022/04/10 03:53:05;;;;;;;1.60;1.00;;;9.10;94.10;;;;;;4848256;29;20220;-56
2022/04/10 03:55:37;;;;;;;1.52;1.00;;;9.00;94.40;;;;;;4847484;29;20268;-57
2022/04/10 03:58:08;;;;;;;2.87;1.53;;;8.90;95.10;;;;;;4841885;29;20247;-56
2022/04/10 04:00:39;;;;;;;1.20;0.95;;;8.80;96.60;;;;;;4847903;29;20468;-55
2022/04/10 04:03:10;;;;;;;1.02;0.90;;;8.70;96.90;;;;;;4850206;29;20198;-55
2022/04/10 04:05:41;;;;;;;1.10;1.00;;;8.60;96.40;;;;;;4838528;29;20218;-55
2022/04/10 04:08:12;;;;;;;4.43;1.23;;;8.60;96.00;;;;;;4848840;29;20237;-56
2022/04/10 04:10:44;;;;;;;2.03;1.10;;;8.50;96.60;;;;;;4843929;29;20216;-55
2022/04/10 04:13:15;;;;;;;1.40;1.10;;;8.50;96.70;;;;;;4849289;29;20227;-54
2022/04/10 04:15:46;;;;;;;1.40;1.20;;;8.50;96.20;;;;;;4844676;29;20221;-54
2022/04/10 04:18:17;;;;;;;3.40;1.30;;;8.40;96.90;;;;;;4847334;29;20233;-55
2022/04/10 04:20:48;;;;;;;1.15;0.95;;;8.40;97.20;;;;;;4844541;29;20202;-56
2022/04/10 04:23:19;;;;;;;2.67;1.23;;;8.50;96.60;;;;;;4842997;29;20550;-54
2022/04/10 04:25:52;;;;;;;1.52;1.00;;;8.50;96.80;;;;;;4842811;29;20210;-54
2022/04/10 04:28:23;;;;;;;2.58;1.05;;;8.50;96.90;;;;;;4832979;29;20224;-53
2022/04/10 04:30:53;;;;;;;1.55;1.05;;;8.50;97.00;;;;;;4844570;29;20202;-54
2022/04/10 04:33:25;;;;;;;3.30;1.30;;;8.50;98.00;;;;;;4839353;29;20218;-55
2022/04/10 04:35:55;;;;;;;3.30;1.50;;;8.50;97.80;;;;;;4847993;29;20305;-55
2022/04/10 04:38:27;;;;;;;2.42;1.30;;;8.40;98.40;;;;;;4848070;29;20230;-55
2022/04/10 04:40:59;;;;;;;3.70;1.13;;;8.40;99.00;;;;;;4844013;29;20277;-56
2022/04/10 04:43:30;;;;;;;1.83;1.00;;;8.40;99.60;;;;;;4850816;29;20224;-53
2022/04/10 04:46:01;;;;;;;2.40;0.80;;;8.20;99.90;;;;;;4843715;29;20213;-53
2022/04/10 04:48:32;;;;;;;3.15;0.90;;;8.20;99.90;;;;;;4851275;29;20242;-56
2022/04/10 04:51:03;;;;;;;1.95;1.27;;;8.10;99.90;;;;;;4841554;29;20218;-55
2022/04/10 04:53:33;;;;;;;0.90;0.60;;;7.90;99.90;;;;;;4846656;29;20210;-54
2022/04/10 04:56:06;;;;;;;0.77;0.70;;;7.90;99.90;;;;;;4839751;29;20292;-56
2022/04/10 04:58:37;;;;;;;1.10;0.70;;;7.80;99.90;;;;;;4844304;29;20701;-52
2022/04/10 05:01:08;;;;;;;0.90;0.60;;;7.70;99.90;;;;;;4849938;29;20228;-55
2022/04/10 05:03:39;;;;;;;0.90;0.70;;;7.50;99.90;;;;;;4851378;29;20217;-51
2022/04/10 05:06:13;;;;;;;0.70;0.70;;;7.50;99.90;;;;;;4850727;29;20261;-55
2022/04/10 05:08:46;;;;;;;1.40;0.75;;;7.40;99.90;;;;;;4841105;29;20229;-51
2022/04/10 05:11:18;;;;;;;3.30;0.85;;;7.40;99.90;;;;;;4839262;29;20214;-55
2022/04/10 05:13:49;;;;;;;0.75;0.50;;;7.40;99.90;;;;;;4847229;29;20224;-56
2022/04/10 05:16:21;;;;;;;0.50;0.50;;;7.40;99.90;;;;;;4844713;29;20336;-55
2022/04/10 05:18:53;;;;;;;1.50;1.40;;;7.40;99.90;;;;;;4837564;29;20228;-55
2022/04/10 05:21:24;;;;;;;2.60;1.08;;;7.30;99.90;;;;;;4846569;29;20213;-54
2022/04/10 05:23:56;;;;;;;0.85;0.77;;;7.30;99.90;;;;;;4845208;29;20248;-56
2022/04/10 05:26:29;;;;;;;1.60;0.80;;;7.30;99.90;;;;;;4849669;29;20219;-53
2022/04/10 05:29:00;;;;;;;1.85;0.80;;;7.30;99.90;;;;;;4848847;29;20209;-51
2022/04/10 05:31:31;;;;;;;2.38;1.00;;;7.20;99.90;;;;;;4849247;29;20206;-52
2022/04/10 05:34:02;;;;;;;1.90;1.00;;;7.20;99.90;;;;;;4849011;29;20233;-53
2022/04/10 05:36:33;;;;;;;1.10;0.80;;;7.20;99.90;;;;;;4842946;29;20213;-53
2022/04/10 05:39:04;;;;;;;1.75;1.00;;;7.10;99.90;;;;;;4848477;29;20240;-55
2022/04/10 05:41:36;;;;;;;1.10;1.00;;;7.10;99.90;;;;;;4836218;29;20230;-55
2022/04/10 05:44:07;;;;;;;7.20;1.02;;;7.10;99.90;;;;;;4840394;29;20221;-53
2022/04/10 05:46:38;;;;;;;1.40;1.30;;;7.10;99.90;;;;;;4848266;29;20215;-54
2022/04/10 05:49:17;;;;;;;2.05;0.90;;;7.20;99.90;;;;;;4836065;29;20899;-52
2022/04/10 05:51:50;;;;;;;2.45;1.13;;;7.10;99.90;;;;;;4841611;29;20202;-54
2022/04/10 05:54:21;;;;;;;4.03;1.27;;;7.00;99.90;;;;;;4844860;29;20321;-53
2022/04/10 05:56:55;;;;;;;1.55;0.80;;;6.90;99.90;;;;;;4840101;29;20210;-54
2022/04/10 05:59:25;;;;;;;1.40;0.80;;;6.90;99.90;;;;;;4845441;29;20283;-54
2022/04/10 06:01:57;;;;;;;1.33;0.90;;;6.80;99.90;;;;;;4851699;29;20205;-52
2022/04/10 06:04:28;;;;;;;1.73;1.20;;;6.80;99.90;;;;;;4843982;29;20198;-53
2022/04/10 06:06:59;;;;;;;4.32;1.25;;;6.80;99.90;;;;;;4843315;29;20229;-53
2022/04/10 06:09:30;;;;;;;2.97;1.20;;;6.80;99.90;;;;;;4846327;29;20213;-53
2022/04/10 06:12:02;;;;;;;2.08;1.17;;;6.80;99.90;;;;;;4842224;29;20270;-55
2022/04/10 06:14:33;;;;;;;2.35;1.20;;;6.70;99.90;;;;;;4833221;29;20307;-54
2022/04/10 06:17:03;;;;;;;4.40;1.60;;;6.70;99.90;;;;;;4846780;29;20213;-51
2022/04/10 06:19:34;;;;;;;1.90;1.63;;;6.60;99.90;;;;;;4846373;29;20248;-55
2022/04/10 06:22:07;;;;;;;1.95;1.42;;;6.40;99.90;;;;;;4838868;29;20265;-51
2022/04/10 06:24:38;;;;;;;2.50;1.52;;;6.40;99.90;;;;;;4851134;29;20225;-52
2022/04/10 06:27:11;;;;;;;1.40;1.30;;;6.40;99.90;;;;;;4850369;29;20236;-54
2022/04/10 06:29:42;;;;;;;2.25;1.80;;;6.30;99.90;;;;;;4839251;29;20209;-54
2022/04/10 06:32:14;;;;;;;5.28;2.28;;;6.30;99.90;;;;;;4852029;29;20198;-50
2022/04/10 06:34:44;;;;;;;3.92;1.60;;;6.40;99.90;;;;;;4851770;29;20317;-51
2022/04/10 06:37:16;;;;;;;2.38;1.77;;;6.30;99.90;;;;;;4845950;29;20225;-54
2022/04/10 06:39:46;;;;;;;1.55;1.45;;;6.20;99.90;;;;;;4838506;29;20237;-51
2022/04/10 06:42:19;;;;;;;1.10;1.00;;;6.20;99.90;;;;;;4841084;29;20213;-51
2022/04/10 06:44:49;;;;;;;1.70;1.15;;;6.10;99.90;;;;;;4843274;29;20297;-53
2022/04/10 06:47:21;;;;;;;2.38;1.55;;;6.00;99.90;;;;;;4850350;29;20208;-52
2022/04/10 06:49:51;;;;;;;1.00;1.00;;;6.00;99.90;;;;;;4840900;29;20765;-50
2022/04/10 06:52:22;;;;;;;1.80;1.25;;;5.90;99.90;;;;;;4851198;29;20206;-50
2022/04/10 06:54:53;;;;;;;1.45;1.35;;;5.80;99.90;;;;;;4851268;29;20213;-50
2022/04/10 06:57:25;;;;;;;1.98;1.27;;;5.80;99.90;;;;;;4845285;29;20225;-51
2022/04/10 06:59:56;;;;;;;2.80;1.50;;;5.90;99.90;;;;;;4837924;29;20225;-52
2022/04/10 07:02:27;;;;;;;2.03;1.00;;;5.90;99.90;;;;;;4851009;29;20216;-54
2022/04/10 07:04:58;;;;;;;1.35;1.25;;;5.90;99.90;;;;;;4851179;29;20301;-50
2022/04/10 07:07:28;;;;;;;1.38;1.27;;;6.00;99.90;;;;;;4839161;29;20325;-52
2022/04/10 07:09:59;;;;;;;1.95;1.10;;;6.00;99.90;;;;;;4849076;29;20220;-50
2022/04/10 07:12:32;;;;;;;5.45;1.50;;;6.00;99.90;;;;;;4847820;29;20217;-48
2022/04/10 07:15:03;;;;;;;2.72;1.27;;;6.00;99.90;;;;;;4844025;29;20193;-52
2022/04/10 07:17:34;;;;;;;1.55;1.00;;;6.00;99.90;;;;;;4836679;29;20217;-54
2022/04/10 07:20:05;;;;;;;2.10;1.15;;;6.00;99.90;;;;;;4836531;29;20260;-49
2022/04/10 07:25:24;;;;;;;0.65;0.65;;;5.90;99.90;;;;;;4847687;29;20666;-52
2022/04/10 07:27:56;;;;;;;1.23;0.80;;;6.00;99.90;;;;;;4849037;29;20245;-50
2022/04/10 07:30:27;;;;;;;0.77;0.77;;;6.00;99.90;;;;;;4847910;29;20209;-53
2022/04/10 07:32:59;;;;;;;0.60;0.60;;;5.90;99.90;;;;;;4851303;29;20209;-50
2022/04/10 07:35:30;;;;;;;3.00;0.80;;;6.00;99.90;;;;;;4850665;29;20228;-51
2022/04/10 07:38:00;;;;;;;1.25;0.63;;;6.00;99.90;;;;;;4835463;29;20210;-49
2022/04/10 07:40:31;;;;;;;0.55;0.50;;;6.00;99.90;;;;;;4833451;29;20263;-50
2022/04/10 07:43:04;;;;;;;0.80;0.80;;;6.00;99.90;;;;;;4846891;29;20205;-50
2022/04/10 07:48:23;;;;;;;0.60;0.60;;;6.00;99.90;;;;;;4847823;29;20205;-50
2022/04/10 07:50:55;;;;;;;1.10;0.80;;;6.10;99.90;;;;;;4838355;29;20202;-53
2022/04/10 07:53:28;;;;;;;0.40;0.40;;;6.10;99.90;;;;;;4850621;29;20276;-50
2022/04/10 07:55:59;;;;;;;2.10;0.93;;;6.30;99.90;;;;;;4850619;29;20209;-51
2022/04/10 07:58:32;;;;;;;1.00;1.00;;;6.30;99.90;;;;;;4834195;29;20210;-51
2022/04/10 08:01:07;;;;;;;1.00;1.00;;;6.30;99.90;;;;;;4850387;29;20209;-53
2022/04/10 08:03:38;;;;;;;1.45;0.95;;;6.30;99.90;;;;;;4848596;29;20210;-52
2022/04/10 08:06:09;;;;;;;0.95;0.90;;;6.30;99.90;;;;;;4850322;29;20213;-52
2022/04/10 08:08:39;;;;;;;0.85;0.80;;;6.30;99.90;;;;;;4846756;29;20249;-52
2022/04/10 08:11:11;;;;;;;1.77;0.75;;;6.30;99.90;;;;;;4847207;29;20225;-53
2022/04/10 08:13:44;;;;;;;0.98;0.90;;;6.30;99.90;;;;;;4843208;29;20226;-53
2022/04/10 08:16:15;;;;;;;1.80;0.77;;;6.40;99.90;;;;;;4848634;29;20224;-49
2022/04/10 08:18:46;;;;;;;1.40;0.70;;;6.30;99.90;;;;;;4848087;29;20275;-54
2022/04/10 08:21:17;;;;;;;1.10;1.10;;;6.30;99.90;;;;;;4853355;29;20291;-51
2022/04/10 08:23:48;;;;;;;3.13;1.08;;;6.20;99.90;;;;;;4841418;29;20218;-51
2022/04/10 08:26:19;;;;;;;1.73;1.48;;;6.30;99.90;;;;;;4842390;29;20240;-53
2022/04/10 08:28:51;;;;;;;1.40;1.30;;;6.30;99.90;;;;;;4842058;29;20202;-52
2022/04/10 08:31:23;;;;;;;1.98;1.48;;;6.30;99.90;;;;;;4841605;29;20206;-54
2022/04/10 08:33:54;;;;;;;1.50;1.00;;;6.40;99.90;;;;;;4845853;29;20255;-53
2022/04/10 08:36:24;;;;;;;1.00;0.90;;;6.40;99.90;;;;;;4835772;29;20273;-51
2022/04/10 08:38:56;;;;;;;0.98;0.98;;;6.40;99.90;;;;;;4835054;29;20221;-50
2022/04/10 08:41:31;;;;;;;2.42;1.00;;;6.50;99.90;;;;;;4842870;29;20250;-54
2022/04/10 08:44:07;;;;;;;1.35;1.10;;;6.40;99.90;;;;;;4852171;29;20536;-52
2022/04/10 08:46:38;;;;;;;1.88;1.48;;;6.40;99.90;;;;;;4853385;29;20312;-52
2022/04/10 08:49:09;;;;;;;1.20;1.10;;;6.50;99.90;;;;;;4853149;29;20284;-52
2022/04/10 08:51:40;;;;;;;1.40;1.30;;;6.50;99.90;;;;;;4853480;29;20209;-53
2022/04/10 08:54:11;;;;;;;1.20;1.10;;;6.60;99.90;;;;;;4850381;29;20217;-53
2022/04/10 08:56:42;;;;;;;1.15;0.98;;;6.70;99.90;;;;;;4840450;29;20306;-50
2022/04/10 08:59:14;;;;;;;0.85;0.85;;;6.70;99.90;;;;;;4834524;29;20225;-51
2022/04/10 09:01:45;;;;;;;0.90;0.90;;;6.60;99.90;;;;;;4836606;29;20218;-50
2022/04/10 09:04:16;;;;;;;1.25;1.00;;;6.60;99.90;;;;;;4848015;29;20213;-54
2022/04/10 09:06:59;;;;;;;1.75;0.80;;;6.70;99.90;;;;;;4851994;29;20213;-52
2022/04/10 09:09:29;;;;;;;1.25;1.00;;;6.60;99.90;;;;;;4852976;29;20224;-53
2022/04/10 09:12:01;;;;;;;0.98;0.90;;;6.60;99.90;;;;;;4852119;29;20202;-49
2022/04/10 09:14:38;;;;;;;1.65;1.55;;;6.70;99.90;;;;;;4837370;29;20228;-51
2022/04/10 09:17:16;;;;;;;1.58;1.02;;;6.70;99.90;;;;;;4842171;29;20220;-54
2022/04/10 09:19:47;;;;;;;3.08;0.95;;;6.60;99.90;;;;;;4852332;29;20548;-53
2022/04/10 09:22:30;;;;;;;4.63;1.75;;;6.70;99.90;;;;;;4850118;29;20209;-51
2022/04/10 09:25:13;;;;;;;1.80;1.23;;;6.70;99.90;;;;;;4843165;29;20214;-51
2022/04/10 09:27:45;;;;;;;1.52;1.42;;;6.70;99.90;;;;;;4844590;29;20209;-52
2022/04/10 09:30:18;;;;;;;1.50;1.33;;;6.60;99.90;;;;;;4852194;29;20289;-53
2022/04/10 09:32:51;;;;;;;1.92;1.20;;;6.70;99.90;;;;;;4852461;29;20229;-48
2022/04/10 09:35:23;;;;;;;3.70;1.45;;;6.70;99.90;;;;;;4849872;29;20214;-51
2022/04/10 09:37:56;;;;;;;1.10;1.10;;;6.70;99.90;;;;;;4838698;29;20304;-52
2022/04/10 09:40:31;;;;;;;1.92;1.30;;;6.60;99.90;;;;;;4849832;29;20242;-53
2022/04/10 09:43:05;;;;;;;2.97;1.20;;;6.60;99.90;;;;;;4833855;29;20209;-53
2022/04/10 09:45:39;;;;;;;1.75;1.20;;;6.50;99.90;;;;;;4834970;29;20261;-54
2022/04/10 09:48:21;;;;;;;2.60;1.27;;;6.50;99.90;;;;;;4848596;29;20213;-55
2022/04/10 09:50:54;;;;;;;1.70;0.90;;;6.40;99.90;;;;;;4843208;29;20308;-54
2022/04/10 09:53:26;;;;;;;3.63;1.25;;;6.40;99.90;;;;;;4847045;29;20255;-52
2022/04/10 09:56:00;;;;;;;1.48;1.33;;;6.30;99.90;;;;;;4848534;29;20292;-52
2022/04/10 09:58:32;;;;;;;1.98;1.40;;;6.30;99.90;;;;;;4839415;29;20202;-50
2022/04/10 10:01:07;;;;;;;1.00;1.00;;;6.20;99.90;;;;;;4846703;29;20229;-53
2022/04/10 10:03:40;;;;;;;2.97;1.30;;;6.20;99.90;;;;;;4849765;29;20228;-51
2022/04/10 10:06:12;;;;;;;3.03;1.30;;;6.20;99.90;;;;;;4849660;29;20883;-55
2022/04/10 10:08:44;;;;;;;3.53;1.20;;;6.20;99.90;;;;;;4833735;29;20313;-53
2022/04/10 10:11:16;;;;;;;1.45;1.10;;;6.20;99.90;;;;;;4847997;29;20205;-53
2022/04/10 10:13:48;;;;;;;2.75;1.70;;;6.20;99.90;;;;;;4848648;29;20209;-51
2022/04/10 10:16:21;;;;;;;3.15;1.10;;;6.30;99.90;;;;;;4850471;29;20283;-55
2022/04/10 10:18:52;;;;;;;1.58;1.45;;;6.20;99.90;;;;;;4851548;29;20281;-52
2022/04/10 10:21:24;;;;;;;8.63;1.90;;;6.20;99.90;;;;;;4846689;29;20319;-52
2022/04/10 10:23:56;;;;;;;4.65;2.03;;;6.20;99.90;;;;;;4845532;29;20201;-52
2022/04/10 10:26:49;;;;;;;2.65;1.35;;;6.20;99.90;;;;;;4848141;29;20201;-54
2022/04/10 10:30:03;;;;;;;3.05;1.80;;;6.20;99.90;;;;;;4846735;29;20588;-50
2022/04/10 10:32:42;;;;;;;5.70;1.90;;;6.20;99.90;;;;;;4826434;29;20202;-52
2022/04/10 10:35:14;;;;;;;2.05;1.50;;;6.20;99.90;;;;;;4842827;29;20610;-50
2022/04/10 10:37:54;;;;;;;2.88;1.48;;;6.20;99.90;;;;;;4837700;29;20230;-52
2022/04/10 10:40:24;;;;;;;1.27;1.17;;;6.30;99.90;;;;;;4837912;29;20236;-50
2022/04/10 10:43:01;;;;;;;3.45;1.58;;;6.30;99.90;;;;;;4845357;29;20206;-53
2022/04/10 10:45:37;;;;;;;4.78;2.38;;;6.30;99.90;;;;;;4843174;29;20288;-50
2022/04/10 10:48:37;;;;;;;4.97;1.27;;;6.40;99.90;;;;;;4836309;29;20206;-50
2022/04/10 10:51:42;;;;;;;4.32;1.30;;;6.40;99.90;;;;;;4844369;29;20221;-54
2022/04/10 10:54:21;;;;;;;3.15;1.13;;;6.30;99.90;;;;;;4848258;29;20205;-52
2022/04/10 10:56:52;;;;;;;3.28;0.85;;;6.20;99.90;;;;;;4838725;29;20217;-53
2022/04/10 10:59:25;;;;;;;2.47;1.02;;;6.20;99.90;;;;;;4850675;29;20261;-50
2022/04/10 11:02:02;;;;;;;3.28;1.20;;;6.30;99.90;;;;;;4849236;29;20245;-51
2022/04/10 11:04:41;;;;;;;4.45;1.13;;;6.30;99.90;;;;;;4835069;29;20221;-49
2022/04/10 11:07:15;;;;;;;1.10;1.00;;;6.30;99.90;;;;;;4847039;29;20252;-55
2022/04/10 11:09:56;;;;;;;3.15;1.05;;;6.30;99.90;;;;;;4850321;29;20219;-50
2022/04/10 11:12:32;;;;;;;1.20;1.05;;;6.30;99.90;;;;;;4834224;29;20225;-51
2022/04/10 11:15:14;;;;;;;3.47;1.38;;;6.30;99.90;;;;;;4834945;29;20217;-53
2022/04/10 11:17:45;;;;;;;4.07;0.90;;;6.30;99.90;;;;;;4845149;29;20197;-52
2022/04/10 11:20:20;;;;;;;3.58;1.27;;;6.30;99.90;;;;;;4845284;29;20209;-53
2022/04/10 11:22:56;;;;;;;1.95;1.00;;;6.30;99.90;;;;;;4832893;29;20216;-52
2022/04/10 11:25:38;;;;;;;1.25;1.08;;;6.30;99.90;;;;;;4849716;29;20216;-53
2022/04/10 11:28:10;;;;;;;4.63;1.30;;;6.20;99.90;;;;;;4849351;29;20213;-53
2022/04/10 11:30:43;;;;;;;4.75;1.60;;;6.10;99.90;;;;;;4848828;29;20213;-51
2022/04/10 11:33:15;;;;;;;3.17;1.33;;;6.00;99.90;;;;;;4848424;29;20241;-51
2022/04/10 11:35:57;;;;;;;4.22;1.30;;;5.90;99.90;;;;;;4846010;29;20231;-53
2022/04/10 11:38:28;;;;;;;2.30;1.08;;;5.90;99.90;;;;;;4832640;29;20635;-54
2022/04/10 11:40:59;;;;;;;1.30;1.00;;;5.80;99.90;;;;;;4832685;29;20241;-51
2022/04/10 11:43:32;;;;;;;4.63;1.23;;;5.90;99.90;;;;;;4847414;29;20209;-52
2022/04/10 11:46:04;;;;;;;2.60;1.05;;;5.90;99.90;;;;;;4848678;29;20216;-51
2022/04/10 11:48:36;;;;;;;4.38;1.50;;;5.80;99.90;;;;;;4849972;29;20253;-53
2022/04/10 11:51:11;;;;;;;4.70;1.25;;;5.80;99.90;;;;;;4841639;29;20210;-50
2022/04/10 11:53:42;;;;;;;3.28;1.50;;;5.80;99.90;;;;;;4852963;29;20288;-49
2022/04/10 11:56:15;;;;;;;1.95;0.60;;;5.90;99.90;;;;;;4848301;29;20218;-54
2022/04/10 11:58:46;;;;;;;3.17;1.25;;;5.90;99.90;;;;;;4845422;29;20209;-54
2022/04/10 12:01:17;;;;;;;5.03;1.40;;;6.00;99.90;;;;;;4839916;29;20233;-54
2022/04/10 12:03:50;;;;;;;3.55;1.40;;;6.00;99.90;;;;;;4839233;29;20190;-52
2022/04/10 12:06:23;;;;;;;1.33;1.05;;;6.00;99.90;;;;;;4850423;29;20572;-52
2022/04/10 12:08:56;;;;;;;4.30;1.17;;;6.10;99.90;;;;;;4847803;29;20588;-53
2022/04/10 12:11:26;;;;;;;2.40;1.35;;;6.00;99.90;;;;;;4851636;29;20209;-50
2022/04/10 12:13:57;;;;;;;5.80;1.65;;;6.00;99.90;;;;;;4848409;29;20201;-50
2022/04/10 12:16:28;;;;;;;2.50;1.20;;;6.00;99.90;;;;;;4853932;29;20217;-51
2022/04/10 12:18:59;;;;;;;1.67;1.48;;;6.00;99.90;;;;;;4853225;29;20309;-53
2022/04/10 12:21:31;;;;;;;4.38;2.13;;;6.00;99.90;;;;;;4838297;29;20237;-49
2022/04/10 12:24:04;;;;;;;4.22;1.88;;;6.00;99.90;;;;;;4848325;29;20222;-50
2022/04/10 12:26:35;;;;;;;3.58;1.60;;;6.10;99.90;;;;;;4853171;29;20232;-49
2022/04/10 12:29:06;;;;;;;4.20;1.77;;;6.10;99.90;;;;;;4851654;29;20594;-51
2022/04/10 12:31:41;;;;;;;5.05;1.80;;;6.10;99.90;;;;;;4842615;29;20221;-53
2022/04/10 12:34:13;;;;;;;4.68;1.80;;;6.10;99.90;;;;;;4835229;29;20282;-52
2022/04/10 12:36:51;;;;;;;3.85;1.88;;;6.10;99.90;;;;;;4836354;29;20208;-53
2022/04/10 12:39:29;;;;;;;2.35;1.70;;;6.10;99.90;;;;;;4850178;29;20514;-53
2022/04/10 12:42:07;;;;;;;4.55;1.70;;;6.00;99.90;;;;;;4845666;29;20233;-52
2022/04/10 12:44:38;;;;;;;5.10;1.60;;;6.00;99.90;;;;;;4845339;29;20641;-55
2022/04/10 12:47:12;;;;;;;1.90;1.30;;;6.10;99.90;;;;;;4843102;29;20225;-52
2022/04/10 12:49:42;;;;;;;4.13;1.42;;;6.10;99.90;;;;;;4847778;29;20839;-51
2022/04/10 12:52:20;;;;;;;2.42;1.20;;;6.00;99.90;;;;;;4835513;29;20562;-54
2022/04/10 12:54:52;;;;;;;2.78;1.30;;;6.00;99.90;;;;;;4844572;29;20198;-52
2022/04/10 12:57:28;;;;;;;3.58;1.48;;;6.00;99.90;;;;;;4835325;29;20313;-52
2022/04/10 12:59:59;;;;;;;3.85;1.65;;;6.10;99.90;;;;;;4844701;29;20209;-52
2022/04/10 13:02:30;;;;;;;4.90;1.48;;;6.00;99.90;;;;;;4848586;29;20226;-55
2022/04/10 13:05:03;;;;;;;3.50;1.13;;;6.00;99.90;;;;;;4843772;29;20392;-52
2022/04/10 13:07:35;;;;;;;4.63;1.55;;;6.10;99.90;;;;;;4835839;29;20230;-51
2022/04/10 13:10:08;;;;;;;2.75;1.50;;;6.00;99.90;;;;;;4841270;29;20288;-52
2022/04/10 13:12:42;;;;;;;2.88;1.65;;;6.00;99.90;;;;;;4847891;29;20239;-50
2022/04/10 13:15:12;;;;;;;5.75;1.60;;;6.00;99.90;;;;;;4840708;29;20221;-53
2022/04/10 13:17:43;;;;;;;4.35;2.25;;;6.10;99.90;;;;;;4838351;29;20811;-51
2022/04/10 13:20:14;;;;;;;4.15;1.85;;;6.10;99.90;;;;;;4842485;29;20227;-56
2022/04/10 13:22:47;;;;;;;2.50;1.65;;;6.00;99.90;;;;;;4849896;29;20319;-51
2022/04/10 13:25:18;;;;;;;3.70;1.83;;;5.90;99.90;;;;;;4852954;29;20205;-52
2022/04/10 13:27:49;;;;;;;6.38;1.70;;;6.00;99.90;;;;;;4843777;29;20209;-56
2022/04/10 13:30:20;;;;;;;2.25;1.60;;;5.90;99.90;;;;;;4851757;29;20281;-52